sensor_id;sensor_type;location;lat;lon;timestamp;P1;durP1;ratioP1;P2;durP2;ratioP2
1380;SDS011;684;48.342;10.096;2023-06-14T00:01:50;9.17;;;5.50;;
1380;SDS011;684;48.342;10.096;2023-06-14T00:04:17;9.43;;;4.60;;
1380;SDS011;684;48.342;10.096;2023-06-14T00:06:46;8.50;;;5.50;;
1380;SDS011;684;48.342;10.096;2023-06-14T00:09:13;9.10;;;5.17;;
1380;SDS011;684;48.342;10.096;2023-06-14T00:11:43;6.90;;;4.37;;
1380;SDS011;684;48.342;10.096;2023-06-14T00:14:10;10.30;;;5.20;;
1380;SDS011;684;48.342;10.096;2023-06-14T00:16:37;9.53;;;5.27;;
1380;SDS011;684;48.342;10.096;2023-06-14T00:19:07;8.80;;;4.63;;
1380;SDS011;684;48.342;10.096;2023-06-14T00:21:35;9.07;;;5.23;;
1380;SDS011;684;48.342;10.096;2023-06-14T00:24:03;8.20;;;4.90;;
1380;SDS011;684;48.342;10.096;2023-06-14T00:26:30;8.13;;;5.70;;
1380;SDS011;684;48.342;10.096;2023-06-14T00:28:58;8.00;;;4.87;;
1380;SDS011;684;48.342;10.096;2023-06-14T00:31:25;8.23;;;4.83;;
1380;SDS011;684;48.342;10.096;2023-06-14T00:33:52;8.43;;;5.50;;
1380;SDS011;684;48.342;10.096;2023-06-14T00:36:19;8.40;;;5.03;;
1380;SDS011;684;48.342;10.096;2023-06-14T00:38:45;9.73;;;5.00;;
1380;SDS011;684;48.342;10.096;2023-06-14T00:41:12;10.27;;;5.37;;
1380;SDS011;684;48.342;10.096;2023-06-14T00:43:39;13.73;;;5.47;;
1380;SDS011;684;48.342;10.096;2023-06-14T00:46:07;8.23;;;5.13;;
1380;SDS011;684;48.342;10.096;2023-06-14T00:48:33;11.20;;;5.43;;
1380;SDS011;684;48.342;10.096;2023-06-14T00:51:02;10.27;;;6.17;;
1380;SDS011;684;48.342;10.096;2023-06-14T00:53:29;9.80;;;5.57;;
1380;SDS011;684;48.342;10.096;2023-06-14T00:55:58;11.90;;;7.03;;
1380;SDS011;684;48.342;10.096;2023-06-14T00:58:26;10.90;;;6.77;;
1380;SDS011;684;48.342;10.096;2023-06-14T01:00:53;10.10;;;5.63;;
1380;SDS011;684;48.342;10.096;2023-06-14T01:03:22;10.20;;;6.07;;
1380;SDS011;684;48.342;10.096;2023-06-14T01:05:50;11.90;;;5.70;;
1380;SDS011;684;48.342;10.096;2023-06-14T01:08:31;9.60;;;6.17;;
1380;SDS011;684;48.342;10.096;2023-06-14T01:11:18;13.50;;;5.87;;
1380;SDS011;684;48.342;10.096;2023-06-14T01:13:51;9.20;;;5.50;;
1380;SDS011;684;48.342;10.096;2023-06-14T01:16:19;10.43;;;5.60;;
1380;SDS011;684;48.342;10.096;2023-06-14T01:18:47;9.13;;;5.60;;
1380;SDS011;684;48.342;10.096;2023-06-14T01:21:24;7.57;;;5.20;;
1380;SDS011;684;48.342;10.096;2023-06-14T01:23:54;9.33;;;5.33;;
1380;SDS011;684;48.342;10.096;2023-06-14T01:26:21;7.90;;;5.37;;
1380;SDS011;684;48.342;10.096;2023-06-14T01:28:49;11.70;;;5.77;;
1380;SDS011;684;48.342;10.096;2023-06-14T01:31:18;9.60;;;5.27;;
1380;SDS011;684;48.342;10.096;2023-06-14T01:33:46;7.00;;;4.43;;
1380;SDS011;684;48.342;10.096;2023-06-14T01:36:14;11.83;;;5.30;;
1380;SDS011;684;48.342;10.096;2023-06-14T01:38:42;10.73;;;5.20;;
1380;SDS011;684;48.342;10.096;2023-06-14T01:41:11;8.57;;;4.70;;
1380;SDS011;684;48.342;10.096;2023-06-14T01:43:39;9.20;;;5.80;;
1380;SDS011;684;48.342;10.096;2023-06-14T01:46:07;9.17;;;5.87;;
1380;SDS011;684;48.342;10.096;2023-06-14T01:48:35;9.57;;;5.47;;
1380;SDS011;684;48.342;10.096;2023-06-14T01:51:02;9.13;;;6.00;;
1380;SDS011;684;48.342;10.096;2023-06-14T01:53:29;8.90;;;5.47;;
1380;SDS011;684;48.342;10.096;2023-06-14T01:55:56;10.23;;;5.00;;
1380;SDS011;684;48.342;10.096;2023-06-14T01:58:24;8.50;;;5.20;;
1380;SDS011;684;48.342;10.096;2023-06-14T02:00:51;10.43;;;5.93;;
1380;SDS011;684;48.342;10.096;2023-06-14T02:03:20;8.10;;;4.63;;
1380;SDS011;684;48.342;10.096;2023-06-14T02:05:48;11.83;;;5.60;;
1380;SDS011;684;48.342;10.096;2023-06-14T02:08:15;10.87;;;6.10;;
1380;SDS011;684;48.342;10.096;2023-06-14T02:10:41;10.20;;;5.60;;
1380;SDS011;684;48.342;10.096;2023-06-14T02:13:08;8.93;;;4.90;;
1380;SDS011;684;48.342;10.096;2023-06-14T02:15:36;9.73;;;5.93;;
1380;SDS011;684;48.342;10.096;2023-06-14T02:18:03;9.53;;;5.23;;
1380;SDS011;684;48.342;10.096;2023-06-14T02:22:59;11.60;;;6.50;;
1380;SDS011;684;48.342;10.096;2023-06-14T02:25:26;10.30;;;5.93;;
1380;SDS011;684;48.342;10.096;2023-06-14T02:27:53;9.30;;;6.10;;
1380;SDS011;684;48.342;10.096;2023-06-14T02:30:21;9.13;;;6.00;;
1380;SDS011;684;48.342;10.096;2023-06-14T02:32:49;9.30;;;5.77;;
1380;SDS011;684;48.342;10.096;2023-06-14T02:35:16;13.63;;;8.53;;
1380;SDS011;684;48.342;10.096;2023-06-14T02:37:43;10.43;;;7.10;;
1380;SDS011;684;48.342;10.096;2023-06-14T02:40:10;12.77;;;7.30;;
1380;SDS011;684;48.342;10.096;2023-06-14T02:42:37;18.43;;;8.40;;
1380;SDS011;684;48.342;10.096;2023-06-14T02:45:04;14.03;;;8.90;;
1380;SDS011;684;48.342;10.096;2023-06-14T02:47:32;15.97;;;8.80;;
1380;SDS011;684;48.342;10.096;2023-06-14T02:50:00;14.07;;;7.10;;
1380;SDS011;684;48.342;10.096;2023-06-14T02:52:27;11.10;;;7.00;;
1380;SDS011;684;48.342;10.096;2023-06-14T02:54:54;10.40;;;6.57;;
1380;SDS011;684;48.342;10.096;2023-06-14T02:57:21;8.60;;;6.83;;
1380;SDS011;684;48.342;10.096;2023-06-14T02:59:48;13.50;;;7.60;;
1380;SDS011;684;48.342;10.096;2023-06-14T03:02:14;16.70;;;7.90;;
1380;SDS011;684;48.342;10.096;2023-06-14T03:04:41;8.60;;;6.03;;
1380;SDS011;684;48.342;10.096;2023-06-14T03:07:10;10.13;;;6.97;;
1380;SDS011;684;48.342;10.096;2023-06-14T03:09:38;12.87;;;6.00;;
1380;SDS011;684;48.342;10.096;2023-06-14T03:12:06;10.27;;;6.30;;
1380;SDS011;684;48.342;10.096;2023-06-14T03:14:34;11.90;;;6.87;;
1380;SDS011;684;48.342;10.096;2023-06-14T03:17:01;13.53;;;7.10;;
1380;SDS011;684;48.342;10.096;2023-06-14T03:19:29;11.67;;;6.00;;
1380;SDS011;684;48.342;10.096;2023-06-14T03:21:56;13.10;;;6.50;;
1380;SDS011;684;48.342;10.096;2023-06-14T03:24:24;11.73;;;7.57;;
1380;SDS011;684;48.342;10.096;2023-06-14T03:26:52;12.50;;;7.50;;
1380;SDS011;684;48.342;10.096;2023-06-14T03:29:19;10.60;;;6.90;;
1380;SDS011;684;48.342;10.096;2023-06-14T03:31:56;11.83;;;6.27;;
1380;SDS011;684;48.342;10.096;2023-06-14T03:34:24;8.30;;;4.93;;
1380;SDS011;684;48.342;10.096;2023-06-14T03:36:50;10.30;;;5.30;;
1380;SDS011;684;48.342;10.096;2023-06-14T03:39:17;9.57;;;5.73;;
1380;SDS011;684;48.342;10.096;2023-06-14T03:41:46;8.67;;;5.83;;
1380;SDS011;684;48.342;10.096;2023-06-14T03:44:14;10.50;;;5.27;;
1380;SDS011;684;48.342;10.096;2023-06-14T03:46:42;11.23;;;6.37;;
1380;SDS011;684;48.342;10.096;2023-06-14T03:49:09;10.30;;;6.20;;
1380;SDS011;684;48.342;10.096;2023-06-14T03:51:36;9.70;;;6.30;;
1380;SDS011;684;48.342;10.096;2023-06-14T03:54:04;10.63;;;6.20;;
1380;SDS011;684;48.342;10.096;2023-06-14T03:56:31;9.33;;;5.77;;
1380;SDS011;684;48.342;10.096;2023-06-14T03:58:59;8.97;;;5.43;;
1380;SDS011;684;48.342;10.096;2023-06-14T04:01:26;10.63;;;5.73;;
1380;SDS011;684;48.342;10.096;2023-06-14T04:03:54;11.50;;;6.90;;
1380;SDS011;684;48.342;10.096;2023-06-14T04:06:22;15.53;;;6.20;;
1380;SDS011;684;48.342;10.096;2023-06-14T04:08:50;8.10;;;5.33;;
1380;SDS011;684;48.342;10.096;2023-06-14T04:11:17;8.93;;;5.93;;
1380;SDS011;684;48.342;10.096;2023-06-14T04:13:44;10.00;;;5.43;;
1380;SDS011;684;48.342;10.096;2023-06-14T04:16:13;12.87;;;5.80;;
1380;SDS011;684;48.342;10.096;2023-06-14T04:18:40;8.50;;;5.40;;
1380;SDS011;684;48.342;10.096;2023-06-14T04:21:06;9.53;;;6.00;;
1380;SDS011;684;48.342;10.096;2023-06-14T04:23:33;8.50;;;5.80;;
1380;SDS011;684;48.342;10.096;2023-06-14T04:26:00;10.07;;;5.83;;
1380;SDS011;684;48.342;10.096;2023-06-14T04:28:27;9.77;;;6.10;;
1380;SDS011;684;48.342;10.096;2023-06-14T04:30:54;8.63;;;5.43;;
1380;SDS011;684;48.342;10.096;2023-06-14T04:33:23;12.40;;;7.10;;
1380;SDS011;684;48.342;10.096;2023-06-14T04:35:50;14.47;;;7.40;;
1380;SDS011;684;48.342;10.096;2023-06-14T04:38:18;10.93;;;7.17;;
1380;SDS011;684;48.342;10.096;2023-06-14T04:40:49;8.30;;;6.20;;
1380;SDS011;684;48.342;10.096;2023-06-14T04:43:18;9.40;;;5.53;;
1380;SDS011;684;48.342;10.096;2023-06-14T04:45:52;9.90;;;6.03;;
1380;SDS011;684;48.342;10.096;2023-06-14T04:48:22;8.80;;;5.67;;
1380;SDS011;684;48.342;10.096;2023-06-14T04:50:49;7.37;;;4.80;;
1380;SDS011;684;48.342;10.096;2023-06-14T04:53:18;7.87;;;5.17;;
1380;SDS011;684;48.342;10.096;2023-06-14T04:55:47;9.13;;;5.83;;
1380;SDS011;684;48.342;10.096;2023-06-14T04:58:15;8.83;;;5.70;;
1380;SDS011;684;48.342;10.096;2023-06-14T05:00:42;7.87;;;5.47;;
1380;SDS011;684;48.342;10.096;2023-06-14T05:03:09;9.33;;;5.67;;
1380;SDS011;684;48.342;10.096;2023-06-14T05:05:40;10.07;;;5.87;;
1380;SDS011;684;48.342;10.096;2023-06-14T05:08:07;9.50;;;5.40;;
1380;SDS011;684;48.342;10.096;2023-06-14T05:10:34;10.40;;;5.50;;
1380;SDS011;684;48.342;10.096;2023-06-14T05:13:01;11.27;;;5.30;;
1380;SDS011;684;48.342;10.096;2023-06-14T05:15:28;8.73;;;5.10;;
1380;SDS011;684;48.342;10.096;2023-06-14T05:17:55;8.53;;;4.90;;
1380;SDS011;684;48.342;10.096;2023-06-14T05:20:22;9.13;;;5.47;;
1380;SDS011;684;48.342;10.096;2023-06-14T05:22:51;12.07;;;5.30;;
1380;SDS011;684;48.342;10.096;2023-06-14T05:25:18;9.10;;;5.10;;
1380;SDS011;684;48.342;10.096;2023-06-14T05:27:45;11.33;;;5.20;;
1380;SDS011;684;48.342;10.096;2023-06-14T05:30:12;8.17;;;5.40;;
1380;SDS011;684;48.342;10.096;2023-06-14T05:32:39;7.93;;;5.37;;
1380;SDS011;684;48.342;10.096;2023-06-14T05:35:06;8.53;;;5.33;;
1380;SDS011;684;48.342;10.096;2023-06-14T05:37:34;7.67;;;4.80;;
1380;SDS011;684;48.342;10.096;2023-06-14T05:40:02;7.13;;;4.70;;
1380;SDS011;684;48.342;10.096;2023-06-14T05:42:31;7.97;;;5.37;;
1380;SDS011;684;48.342;10.096;2023-06-14T05:44:57;6.80;;;3.93;;
1380;SDS011;684;48.342;10.096;2023-06-14T05:47:24;8.63;;;5.00;;
1380;SDS011;684;48.342;10.096;2023-06-14T05:49:52;7.57;;;4.73;;
1380;SDS011;684;48.342;10.096;2023-06-14T05:52:20;7.73;;;4.77;;
1380;SDS011;684;48.342;10.096;2023-06-14T05:54:47;6.83;;;4.80;;
1380;SDS011;684;48.342;10.096;2023-06-14T05:57:15;6.83;;;5.27;;
1380;SDS011;684;48.342;10.096;2023-06-14T05:59:42;8.93;;;5.30;;
1380;SDS011;684;48.342;10.096;2023-06-14T06:02:09;8.17;;;4.20;;
1380;SDS011;684;48.342;10.096;2023-06-14T06:04:35;6.03;;;4.50;;
1380;SDS011;684;48.342;10.096;2023-06-14T06:07:02;10.07;;;5.00;;
1380;SDS011;684;48.342;10.096;2023-06-14T06:09:30;7.00;;;4.70;;
1380;SDS011;684;48.342;10.096;2023-06-14T06:11:56;7.80;;;4.87;;
1380;SDS011;684;48.342;10.096;2023-06-14T06:14:25;7.43;;;4.17;;
1380;SDS011;684;48.342;10.096;2023-06-14T06:16:51;6.07;;;4.57;;
1380;SDS011;684;48.342;10.096;2023-06-14T06:19:18;6.83;;;4.83;;
1380;SDS011;684;48.342;10.096;2023-06-14T06:21:45;8.03;;;4.80;;
1380;SDS011;684;48.342;10.096;2023-06-14T06:24:12;9.83;;;5.00;;
1380;SDS011;684;48.342;10.096;2023-06-14T06:26:39;7.83;;;5.10;;
1380;SDS011;684;48.342;10.096;2023-06-14T06:29:05;7.10;;;4.50;;
1380;SDS011;684;48.342;10.096;2023-06-14T06:31:34;7.57;;;3.90;;
1380;SDS011;684;48.342;10.096;2023-06-14T06:34:00;5.60;;;4.60;;
1380;SDS011;684;48.342;10.096;2023-06-14T06:36:27;9.33;;;4.70;;
1380;SDS011;684;48.342;10.096;2023-06-14T06:38:54;6.70;;;4.10;;
1380;SDS011;684;48.342;10.096;2023-06-14T06:41:21;7.37;;;4.73;;
1380;SDS011;684;48.342;10.096;2023-06-14T06:43:48;6.00;;;4.20;;
1380;SDS011;684;48.342;10.096;2023-06-14T06:46:15;6.47;;;4.50;;
1380;SDS011;684;48.342;10.096;2023-06-14T06:48:44;6.97;;;4.80;;
1380;SDS011;684;48.342;10.096;2023-06-14T06:51:11;7.37;;;4.17;;
1380;SDS011;684;48.342;10.096;2023-06-14T06:53:38;5.80;;;4.17;;
1380;SDS011;684;48.342;10.096;2023-06-14T06:56:07;8.27;;;4.00;;
1380;SDS011;684;48.342;10.096;2023-06-14T06:58:34;8.90;;;4.43;;
1380;SDS011;684;48.342;10.096;2023-06-14T07:01:01;7.27;;;4.43;;
1380;SDS011;684;48.342;10.096;2023-06-14T07:03:27;5.60;;;3.40;;
1380;SDS011;684;48.342;10.096;2023-06-14T07:05:56;11.03;;;4.70;;
1380;SDS011;684;48.342;10.096;2023-06-14T07:08:23;5.70;;;4.20;;
1380;SDS011;684;48.342;10.096;2023-06-14T07:10:50;9.03;;;4.60;;
1380;SDS011;684;48.342;10.096;2023-06-14T07:13:16;9.70;;;4.27;;
1380;SDS011;684;48.342;10.096;2023-06-14T07:15:44;11.97;;;4.10;;
1380;SDS011;684;48.342;10.096;2023-06-14T07:18:11;6.50;;;4.07;;
1380;SDS011;684;48.342;10.096;2023-06-14T07:20:38;5.83;;;3.80;;
1380;SDS011;684;48.342;10.096;2023-06-14T07:23:06;5.40;;;3.53;;
1380;SDS011;684;48.342;10.096;2023-06-14T07:25:33;8.10;;;4.40;;
1380;SDS011;684;48.342;10.096;2023-06-14T07:28:00;7.60;;;3.47;;
1380;SDS011;684;48.342;10.096;2023-06-14T07:30:27;5.37;;;3.63;;
1380;SDS011;684;48.342;10.096;2023-06-14T07:32:55;7.37;;;3.77;;
1380;SDS011;684;48.342;10.096;2023-06-14T07:35:21;5.77;;;3.40;;
1380;SDS011;684;48.342;10.096;2023-06-14T07:37:48;6.20;;;3.70;;
1380;SDS011;684;48.342;10.096;2023-06-14T07:40:16;5.67;;;3.30;;
1380;SDS011;684;48.342;10.096;2023-06-14T07:42:43;7.30;;;3.97;;
1380;SDS011;684;48.342;10.096;2023-06-14T07:45:11;6.80;;;3.30;;
1380;SDS011;684;48.342;10.096;2023-06-14T07:47:38;7.43;;;4.13;;
1380;SDS011;684;48.342;10.096;2023-06-14T07:50:06;6.00;;;3.60;;
1380;SDS011;684;48.342;10.096;2023-06-14T07:52:33;7.13;;;3.30;;
1380;SDS011;684;48.342;10.096;2023-06-14T07:54:59;7.43;;;3.70;;
1380;SDS011;684;48.342;10.096;2023-06-14T07:57:27;7.50;;;3.90;;
1380;SDS011;684;48.342;10.096;2023-06-14T07:59:54;8.70;;;3.70;;
1380;SDS011;684;48.342;10.096;2023-06-14T08:02:21;7.17;;;3.70;;
1380;SDS011;684;48.342;10.096;2023-06-14T08:04:48;5.40;;;3.63;;
1380;SDS011;684;48.342;10.096;2023-06-14T08:07:14;6.97;;;3.30;;
1380;SDS011;684;48.342;10.096;2023-06-14T08:09:41;7.67;;;3.90;;
1380;SDS011;684;48.342;10.096;2023-06-14T08:12:08;6.70;;;3.87;;
1380;SDS011;684;48.342;10.096;2023-06-14T08:14:37;9.13;;;3.70;;
1380;SDS011;684;48.342;10.096;2023-06-14T08:17:05;10.27;;;3.30;;
1380;SDS011;684;48.342;10.096;2023-06-14T08:19:31;4.83;;;3.67;;
1380;SDS011;684;48.342;10.096;2023-06-14T08:21:58;7.37;;;3.27;;
1380;SDS011;684;48.342;10.096;2023-06-14T08:24:25;9.13;;;3.73;;
1380;SDS011;684;48.342;10.096;2023-06-14T08:26:52;8.67;;;3.50;;
1380;SDS011;684;48.342;10.096;2023-06-14T08:29:19;7.23;;;3.63;;
1380;SDS011;684;48.342;10.096;2023-06-14T08:31:48;5.70;;;3.27;;
1380;SDS011;684;48.342;10.096;2023-06-14T08:34:14;8.80;;;3.10;;
1380;SDS011;684;48.342;10.096;2023-06-14T08:36:41;7.47;;;3.40;;
1380;SDS011;684;48.342;10.096;2023-06-14T08:39:08;10.40;;;3.58;;
1380;SDS011;684;48.342;10.096;2023-06-14T08:41:35;6.43;;;3.40;;
1380;SDS011;684;48.342;10.096;2023-06-14T08:44:02;7.97;;;3.43;;
1380;SDS011;684;48.342;10.096;2023-06-14T08:46:29;7.80;;;3.50;;
1380;SDS011;684;48.342;10.096;2023-06-14T08:49:00;7.80;;;3.67;;
1380;SDS011;684;48.342;10.096;2023-06-14T08:51:28;11.30;;;3.57;;
1380;SDS011;684;48.342;10.096;2023-06-14T08:53:59;6.33;;;3.40;;
1380;SDS011;684;48.342;10.096;2023-06-14T08:56:26;10.87;;;3.30;;
1380;SDS011;684;48.342;10.096;2023-06-14T08:58:54;9.57;;;3.57;;
1380;SDS011;684;48.342;10.096;2023-06-14T09:01:22;12.33;;;3.30;;
1380;SDS011;684;48.342;10.096;2023-06-14T09:03:49;6.10;;;3.50;;
1380;SDS011;684;48.342;10.096;2023-06-14T09:06:18;5.75;;;2.92;;
1380;SDS011;684;48.342;10.096;2023-06-14T09:08:48;6.40;;;3.83;;
1380;SDS011;684;48.342;10.096;2023-06-14T09:11:16;7.67;;;3.57;;
1380;SDS011;684;48.342;10.096;2023-06-14T09:13:44;5.90;;;3.00;;
1380;SDS011;684;48.342;10.096;2023-06-14T09:16:11;11.17;;;4.00;;
1380;SDS011;684;48.342;10.096;2023-06-14T09:18:38;4.90;;;3.20;;
1380;SDS011;684;48.342;10.096;2023-06-14T09:21:10;5.67;;;3.00;;
1380;SDS011;684;48.342;10.096;2023-06-14T09:23:39;7.53;;;3.47;;
1380;SDS011;684;48.342;10.096;2023-06-14T09:26:07;7.07;;;3.17;;
1380;SDS011;684;48.342;10.096;2023-06-14T09:28:34;8.20;;;3.80;;
1380;SDS011;684;48.342;10.096;2023-06-14T09:31:01;7.73;;;3.30;;
1380;SDS011;684;48.342;10.096;2023-06-14T09:33:28;6.20;;;3.50;;
1380;SDS011;684;48.342;10.096;2023-06-14T09:35:56;8.67;;;3.70;;
1380;SDS011;684;48.342;10.096;2023-06-14T09:38:23;6.77;;;4.33;;
1380;SDS011;684;48.342;10.096;2023-06-14T09:40:52;5.70;;;3.37;;
1380;SDS011;684;48.342;10.096;2023-06-14T09:43:22;6.83;;;3.67;;
1380;SDS011;684;48.342;10.096;2023-06-14T09:45:51;8.20;;;3.87;;
1380;SDS011;684;48.342;10.096;2023-06-14T09:48:18;6.40;;;3.50;;
1380;SDS011;684;48.342;10.096;2023-06-14T09:50:45;5.93;;;3.50;;
1380;SDS011;684;48.342;10.096;2023-06-14T09:53:13;9.43;;;3.90;;
1380;SDS011;684;48.342;10.096;2023-06-14T09:55:41;7.27;;;3.30;;
1380;SDS011;684;48.342;10.096;2023-06-14T09:58:10;6.23;;;3.40;;
1380;SDS011;684;48.342;10.096;2023-06-14T10:00:38;5.73;;;3.70;;
1380;SDS011;684;48.342;10.096;2023-06-14T10:03:06;7.90;;;3.67;;
1380;SDS011;684;48.342;10.096;2023-06-14T10:05:39;5.70;;;3.63;;
1380;SDS011;684;48.342;10.096;2023-06-14T10:08:10;7.33;;;3.90;;
1380;SDS011;684;48.342;10.096;2023-06-14T10:10:41;7.33;;;3.87;;
1380;SDS011;684;48.342;10.096;2023-06-14T10:13:10;6.27;;;3.60;;
1380;SDS011;684;48.342;10.096;2023-06-14T10:15:40;5.80;;;3.73;;
1380;SDS011;684;48.342;10.096;2023-06-14T10:18:14;5.73;;;3.23;;
1380;SDS011;684;48.342;10.096;2023-06-14T10:20:49;5.80;;;3.17;;
1380;SDS011;684;48.342;10.096;2023-06-14T10:23:21;6.70;;;4.00;;
1380;SDS011;684;48.342;10.096;2023-06-14T10:25:50;6.20;;;3.47;;
1380;SDS011;684;48.342;10.096;2023-06-14T10:28:22;6.70;;;3.53;;
1380;SDS011;684;48.342;10.096;2023-06-14T10:31:02;6.43;;;3.27;;
1380;SDS011;684;48.342;10.096;2023-06-14T10:33:30;6.80;;;3.83;;
1380;SDS011;684;48.342;10.096;2023-06-14T10:38:59;7.43;;;3.90;;
1380;SDS011;684;48.342;10.096;2023-06-14T10:41:27;9.90;;;4.20;;
1380;SDS011;684;48.342;10.096;2023-06-14T10:44:12;8.73;;;4.00;;
1380;SDS011;684;48.342;10.096;2023-06-14T10:46:59;9.13;;;3.90;;
1380;SDS011;684;48.342;10.096;2023-06-14T10:49:36;7.53;;;3.33;;
1380;SDS011;684;48.342;10.096;2023-06-14T10:52:07;9.03;;;3.70;;
1380;SDS011;684;48.342;10.096;2023-06-14T10:54:36;7.43;;;4.20;;
1380;SDS011;684;48.342;10.096;2023-06-14T10:57:03;7.67;;;4.73;;
1380;SDS011;684;48.342;10.096;2023-06-14T10:59:34;6.73;;;3.57;;
1380;SDS011;684;48.342;10.096;2023-06-14T11:02:07;6.77;;;3.93;;
1380;SDS011;684;48.342;10.096;2023-06-14T11:04:53;6.10;;;3.90;;
1380;SDS011;684;48.342;10.096;2023-06-14T11:07:26;10.63;;;3.93;;
1380;SDS011;684;48.342;10.096;2023-06-14T11:10:10;9.13;;;4.10;;
1380;SDS011;684;48.342;10.096;2023-06-14T11:12:47;8.83;;;3.93;;
1380;SDS011;684;48.342;10.096;2023-06-14T11:15:15;6.30;;;4.00;;
1380;SDS011;684;48.342;10.096;2023-06-14T11:17:49;6.77;;;3.80;;
1380;SDS011;684;48.342;10.096;2023-06-14T11:20:18;6.70;;;4.13;;
1380;SDS011;684;48.342;10.096;2023-06-14T11:22:45;7.03;;;3.70;;
1380;SDS011;684;48.342;10.096;2023-06-14T11:25:13;9.07;;;4.00;;
1380;SDS011;684;48.342;10.096;2023-06-14T11:27:41;6.73;;;3.47;;
1380;SDS011;684;48.342;10.096;2023-06-14T11:30:08;6.43;;;3.90;;
1380;SDS011;684;48.342;10.096;2023-06-14T11:32:37;8.10;;;3.93;;
1380;SDS011;684;48.342;10.096;2023-06-14T11:35:04;5.80;;;3.77;;
1380;SDS011;684;48.342;10.096;2023-06-14T11:37:32;6.97;;;3.30;;
1380;SDS011;684;48.342;10.096;2023-06-14T11:39:59;7.30;;;3.73;;
1380;SDS011;684;48.342;10.096;2023-06-14T11:42:26;8.00;;;3.83;;
1380;SDS011;684;48.342;10.096;2023-06-14T11:44:54;6.70;;;4.00;;
1380;SDS011;684;48.342;10.096;2023-06-14T11:47:20;7.23;;;4.27;;
1380;SDS011;684;48.342;10.096;2023-06-14T11:49:50;7.70;;;4.10;;
1380;SDS011;684;48.342;10.096;2023-06-14T11:52:18;7.43;;;3.93;;
1380;SDS011;684;48.342;10.096;2023-06-14T11:54:44;10.13;;;4.00;;
1380;SDS011;684;48.342;10.096;2023-06-14T11:57:14;8.67;;;4.47;;
1380;SDS011;684;48.342;10.096;2023-06-14T11:59:43;10.50;;;4.03;;
1380;SDS011;684;48.342;10.096;2023-06-14T12:02:13;6.37;;;3.57;;
1380;SDS011;684;48.342;10.096;2023-06-14T12:04:40;7.30;;;3.83;;
1380;SDS011;684;48.342;10.096;2023-06-14T12:07:12;6.50;;;3.30;;
1380;SDS011;684;48.342;10.096;2023-06-14T12:09:40;9.93;;;4.47;;
1380;SDS011;684;48.342;10.096;2023-06-14T12:12:09;5.93;;;3.53;;
1380;SDS011;684;48.342;10.096;2023-06-14T12:14:36;6.67;;;4.20;;
1380;SDS011;684;48.342;10.096;2023-06-14T12:17:06;7.30;;;4.20;;
1380;SDS011;684;48.342;10.096;2023-06-14T12:19:33;5.53;;;3.23;;
1380;SDS011;684;48.342;10.096;2023-06-14T12:22:09;10.70;;;4.20;;
1380;SDS011;684;48.342;10.096;2023-06-14T12:24:37;8.60;;;4.03;;
1380;SDS011;684;48.342;10.096;2023-06-14T12:27:04;7.80;;;3.10;;
1380;SDS011;684;48.342;10.096;2023-06-14T12:29:32;6.80;;;3.77;;
1380;SDS011;684;48.342;10.096;2023-06-14T12:31:58;6.00;;;3.60;;
1380;SDS011;684;48.342;10.096;2023-06-14T12:34:25;5.83;;;3.60;;
1380;SDS011;684;48.342;10.096;2023-06-14T12:36:52;8.20;;;4.10;;
1380;SDS011;684;48.342;10.096;2023-06-14T12:39:19;9.43;;;3.77;;
1380;SDS011;684;48.342;10.096;2023-06-14T12:41:48;5.47;;;3.40;;
1380;SDS011;684;48.342;10.096;2023-06-14T12:44:15;7.03;;;4.57;;
1380;SDS011;684;48.342;10.096;2023-06-14T12:46:41;6.33;;;3.73;;
1380;SDS011;684;48.342;10.096;2023-06-14T12:49:09;7.37;;;3.90;;
1380;SDS011;684;48.342;10.096;2023-06-14T12:51:37;7.03;;;3.60;;
1380;SDS011;684;48.342;10.096;2023-06-14T12:54:04;6.20;;;3.83;;
1380;SDS011;684;48.342;10.096;2023-06-14T12:56:31;8.77;;;4.40;;
1380;SDS011;684;48.342;10.096;2023-06-14T12:58:59;6.30;;;3.57;;
1380;SDS011;684;48.342;10.096;2023-06-14T13:01:26;6.57;;;3.80;;
1380;SDS011;684;48.342;10.096;2023-06-14T13:03:53;7.00;;;3.60;;
1380;SDS011;684;48.342;10.096;2023-06-14T13:06:20;9.73;;;4.07;;
1380;SDS011;684;48.342;10.096;2023-06-14T13:08:47;8.17;;;4.27;;
1380;SDS011;684;48.342;10.096;2023-06-14T13:11:15;8.73;;;4.50;;
1380;SDS011;684;48.342;10.096;2023-06-14T13:13:42;10.03;;;4.33;;
1380;SDS011;684;48.342;10.096;2023-06-14T13:16:10;17.33;;;3.97;;
1380;SDS011;684;48.342;10.096;2023-06-14T13:18:38;9.77;;;5.00;;
1380;SDS011;684;48.342;10.096;2023-06-14T13:21:05;8.10;;;3.37;;
1380;SDS011;684;48.342;10.096;2023-06-14T13:23:31;7.23;;;3.93;;
1380;SDS011;684;48.342;10.096;2023-06-14T13:25:58;7.00;;;3.50;;
1380;SDS011;684;48.342;10.096;2023-06-14T13:28:25;7.20;;;3.83;;
1380;SDS011;684;48.342;10.096;2023-06-14T13:30:52;6.00;;;3.20;;
1380;SDS011;684;48.342;10.096;2023-06-14T13:33:22;5.67;;;3.53;;
1380;SDS011;684;48.342;10.096;2023-06-14T13:35:49;8.30;;;4.43;;
1380;SDS011;684;48.342;10.096;2023-06-14T13:38:17;7.07;;;4.00;;
1380;SDS011;684;48.342;10.096;2023-06-14T13:40:44;5.77;;;3.60;;
1380;SDS011;684;48.342;10.096;2023-06-14T13:43:11;7.07;;;4.33;;
1380;SDS011;684;48.342;10.096;2023-06-14T13:45:38;7.13;;;3.87;;
1380;SDS011;684;48.342;10.096;2023-06-14T13:48:05;6.87;;;3.70;;
1380;SDS011;684;48.342;10.096;2023-06-14T13:50:33;6.10;;;3.73;;
1380;SDS011;684;48.342;10.096;2023-06-14T13:53:00;7.00;;;4.13;;
1380;SDS011;684;48.342;10.096;2023-06-14T13:55:26;7.20;;;3.93;;
1380;SDS011;684;48.342;10.096;2023-06-14T13:57:53;10.23;;;4.27;;
1380;SDS011;684;48.342;10.096;2023-06-14T14:00:21;7.23;;;3.40;;
1380;SDS011;684;48.342;10.096;2023-06-14T14:02:48;9.90;;;4.53;;
1380;SDS011;684;48.342;10.096;2023-06-14T14:05:16;7.60;;;3.83;;
1380;SDS011;684;48.342;10.096;2023-06-14T14:07:44;6.03;;;3.53;;
1380;SDS011;684;48.342;10.096;2023-06-14T14:10:11;6.23;;;3.83;;
1380;SDS011;684;48.342;10.096;2023-06-14T14:12:38;7.23;;;4.00;;
1380;SDS011;684;48.342;10.096;2023-06-14T14:15:05;6.90;;;4.00;;
1380;SDS011;684;48.342;10.096;2023-06-14T14:17:37;7.30;;;3.43;;
1380;SDS011;684;48.342;10.096;2023-06-14T14:20:04;6.73;;;3.50;;
1380;SDS011;684;48.342;10.096;2023-06-14T14:22:32;9.80;;;4.00;;
1380;SDS011;684;48.342;10.096;2023-06-14T14:25:00;9.17;;;3.63;;
1380;SDS011;684;48.342;10.096;2023-06-14T14:27:27;13.00;;;3.83;;
1380;SDS011;684;48.342;10.096;2023-06-14T14:29:53;6.97;;;3.80;;
1380;SDS011;684;48.342;10.096;2023-06-14T14:32:20;9.10;;;4.20;;
1380;SDS011;684;48.342;10.096;2023-06-14T14:34:47;11.93;;;4.70;;
1380;SDS011;684;48.342;10.096;2023-06-14T14:37:13;6.73;;;3.57;;
1380;SDS011;684;48.342;10.096;2023-06-14T14:39:40;7.10;;;3.70;;
1380;SDS011;684;48.342;10.096;2023-06-14T14:42:08;8.10;;;3.97;;
1380;SDS011;684;48.342;10.096;2023-06-14T14:44:36;6.97;;;3.63;;
1380;SDS011;684;48.342;10.096;2023-06-14T14:47:03;6.90;;;4.03;;
1380;SDS011;684;48.342;10.096;2023-06-14T14:49:30;8.80;;;4.10;;
1380;SDS011;684;48.342;10.096;2023-06-14T14:51:57;8.00;;;3.63;;
1380;SDS011;684;48.342;10.096;2023-06-14T14:54:23;10.80;;;4.30;;
1380;SDS011;684;48.342;10.096;2023-06-14T14:56:51;6.90;;;4.50;;
1380;SDS011;684;48.342;10.096;2023-06-14T14:59:19;8.50;;;3.67;;
1380;SDS011;684;48.342;10.096;2023-06-14T15:01:47;8.07;;;4.27;;
1380;SDS011;684;48.342;10.096;2023-06-14T15:04:13;6.77;;;3.00;;
1380;SDS011;684;48.342;10.096;2023-06-14T15:06:40;6.73;;;3.53;;
1380;SDS011;684;48.342;10.096;2023-06-14T15:09:07;7.43;;;3.60;;
1380;SDS011;684;48.342;10.096;2023-06-14T15:11:34;6.27;;;3.43;;
1380;SDS011;684;48.342;10.096;2023-06-14T15:14:00;7.17;;;3.50;;
1380;SDS011;684;48.342;10.096;2023-06-14T15:16:28;7.83;;;3.50;;
1380;SDS011;684;48.342;10.096;2023-06-14T15:18:55;6.70;;;3.93;;
1380;SDS011;684;48.342;10.096;2023-06-14T15:21:22;6.40;;;4.00;;
1380;SDS011;684;48.342;10.096;2023-06-14T15:23:49;11.07;;;4.20;;